Time;durP1;ratioP1;P1;durP2;ratioP2;P2;SDS_P1;SDS_P2;PMS_P1;PMS_P2;Temp;Humidity;BMP_temperature;BMP_pressure;BME280_temperature;BME280_humidity;BME280_pressure;Samples;Min_cycle;Max_cycle;Signal;HPM_P1;HPM_P2
2022/03/10 00:02:36;;;;;;;43.83;21.97;;;;;;;-6.11;91.73;100456.54;1791202;80;21225;-76
2022/03/10 00:05:35;;;;;;;35.75;19.50;;;;;;;-6.09;92.03;100461.78;1792253;80;21733;-80
2022/03/10 00:08:40;;;;;;;38.65;22.73;;;;;;;-6.11;92.18;100460.53;1791739;80;21177;-75
2022/03/10 00:11:47;;;;;;;41.00;22.77;;;;;;;-6.13;92.29;100454.86;1790721;79;21761;-81
2022/03/10 00:14:53;;;;;;;35.55;21.40;;;;;;;-6.15;92.37;100450.95;1792147;80;21149;-78
2022/03/10 00:18:02;;;;;;;38.67;21.65;;;;;;;-6.15;92.52;100445.62;1790956;80;21192;-80
2022/03/10 00:21:06;;;;;;;35.50;21.97;;;;;;;-6.13;92.70;100441.55;1792291;80;21200;-76
2022/03/10 00:24:14;;;;;;;37.58;22.20;;;;;;;-6.06;92.96;100441.22;1792334;80;21758;-80
2022/03/10 00:27:20;;;;;;;41.00;21.20;;;;;;;-6.00;93.21;100438.27;1792344;80;21188;-76
2022/03/10 00:30:27;;;;;;;36.30;22.00;;;;;;;-5.93;93.31;100438.41;1792262;80;21165;-77
2022/03/10 00:33:32;;;;;;;38.75;23.38;;;;;;;-5.84;93.31;100437.55;1792356;80;21158;-80
2022/03/10 00:36:37;;;;;;;44.50;23.60;;;;;;;-5.75;93.26;100442.45;1792275;80;21789;-80
2022/03/10 00:39:42;;;;;;;39.98;23.60;;;;;;;-5.68;93.08;100446.11;1792073;80;21188;-80
2022/03/10 00:42:48;;;;;;;34.60;21.30;;;;;;;-5.61;92.98;100440.48;1791178;80;21204;-80
2022/03/10 00:45:53;;;;;;;34.03;21.27;;;;;;;-5.54;92.78;100436.15;1792177;80;21165;-76
2022/03/10 00:49:00;;;;;;;34.35;21.27;;;;;;;-5.48;92.45;100440.32;1792076;80;21145;-75
2022/03/10 00:52:07;;;;;;;37.15;22.17;;;;;;;-5.41;91.98;100443.97;1791586;80;21185;-80
2022/03/10 00:55:15;;;;;;;29.92;18.40;;;;;;;-5.33;91.52;100444.06;1792327;80;21177;-76
2022/03/10 00:58:21;;;;;;;30.85;17.23;;;;;;;-5.32;90.29;100437.79;1792475;80;21184;-80
2022/03/10 01:01:26;;;;;;;24.40;14.18;;;;;;;-5.32;89.05;100451.13;1792212;80;21200;-80
2022/03/10 01:04:32;;;;;;;22.52;12.78;;;;;;;-5.40;85.91;100457.69;1792259;80;21212;-76
2022/03/10 01:07:37;;;;;;;19.15;11.10;;;;;;;-5.49;83.76;100466.12;1792218;80;21737;-75
2022/03/10 01:10:44;;;;;;;16.70;10.82;;;;;;;-5.63;82.04;100461.89;1792153;80;21729;-77
2022/03/10 01:13:50;;;;;;;21.37;9.38;;;;;;;-5.79;81.47;100463.03;1792342;80;21138;-79
2022/03/10 01:16:58;;;;;;;18.10;10.58;;;;;;;-5.95;81.26;100477.55;1792251;80;21753;-75
2022/03/10 01:20:05;;;;;;;19.23;9.40;;;;;;;-6.07;81.49;100475.45;1792356;80;21145;-77
2022/03/10 01:23:11;;;;;;;14.70;10.03;;;;;;;-6.11;82.03;100472.98;1792296;80;21240;-78
2022/03/10 01:26:10;;;;;;;21.73;11.63;;;;;;;-6.14;82.39;100482.43;1792969;78;21232;-79
2022/03/10 01:29:16;;;;;;;19.65;11.93;;;;;;;-6.17;82.59;100473.63;1795822;80;21456;-75
2022/03/10 01:32:23;;;;;;;19.45;11.03;;;;;;;-6.17;83.11;100480.75;1795118;80;21196;-79
2022/03/10 01:35:30;;;;;;;18.23;10.28;;;;;;;-6.18;83.34;100479.02;1794432;80;21164;-75
2022/03/10 01:38:39;;;;;;;16.32;9.43;;;;;;;-6.20;83.09;100474.25;1795961;80;21200;-77
2022/03/10 01:41:46;;;;;;;18.67;12.43;;;;;;;-6.21;83.08;100488.47;1795496;80;21184;-80
2022/03/10 01:44:52;;;;;;;26.10;12.68;;;;;;;-6.22;83.46;100491.59;1795968;80;21168;-77
2022/03/10 01:47:58;;;;;;;19.07;11.00;;;;;;;-6.26;83.58;100505.97;1795995;80;21782;-75
2022/03/10 01:51:03;;;;;;;21.62;11.73;;;;;;;-6.33;84.21;100500.52;1795978;80;21160;-80
2022/03/10 01:54:10;;;;;;;19.05;11.30;;;;;;;-6.39;84.86;100501.26;1796008;80;21180;-79
2022/03/10 01:57:15;;;;;;;16.90;10.38;;;;;;;-6.44;85.26;100495.66;1795918;80;21207;-75
2022/03/10 02:00:22;;;;;;;21.80;12.58;;;;;;;-6.41;85.67;100493.78;1782334;80;22112;-75
2022/03/10 02:03:30;;;;;;;21.95;11.38;;;;;;;-6.39;85.78;100494.61;1795936;80;21169;-76
2022/03/10 02:06:35;;;;;;;24.75;12.70;;;;;;;-6.40;85.59;100491.52;1795647;80;21188;-75
2022/03/10 02:12:58;;;;;;;25.60;11.97;;;;;;;-6.36;85.90;100489.13;1794712;80;21188;-79
2022/03/10 02:18:56;;;;;;;22.50;12.53;;;;;;;-6.32;85.70;100495.59;1770625;81;21193;-75
2022/03/10 02:21:50;;;;;;;21.50;12.03;;;;;;;-6.31;85.40;100505.77;1712105;84;21307;-75
2022/03/10 02:24:55;;;;;;;21.40;13.13;;;;;;;-6.32;84.96;100496.05;1780174;79;21643;-76
2022/03/10 02:28:01;;;;;;;20.88;12.15;;;;;;;-6.37;84.04;100507.37;1809215;78;21200;-75
2022/03/10 02:31:07;;;;;;;24.05;14.70;;;;;;;-6.42;82.73;100500.05;1785452;80;21455;-75
2022/03/10 02:34:14;;;;;;;25.35;12.90;;;;;;;-6.45;82.66;100495.23;1817487;79;21130;-79
2022/03/10 02:37:19;;;;;;;28.05;15.70;;;;;;;-6.47;81.94;100505.09;1785303;80;21222;-75
2022/03/10 02:40:25;;;;;;;21.87;12.07;;;;;;;-6.50;82.22;100500.36;1817439;79;21158;-79
2022/03/10 02:43:31;;;;;;;21.35;12.18;;;;;;;-6.46;82.61;100505.48;1783886;80;21160;-75
2022/03/10 02:46:37;;;;;;;22.30;12.90;;;;;;;-6.50;82.01;100497.22;1817122;79;21505;-75
2022/03/10 02:49:43;;;;;;;24.52;14.25;;;;;;;-6.50;82.44;100503.88;1785238;80;21153;-79
2022/03/10 02:52:50;;;;;;;21.20;12.78;;;;;;;-6.52;82.61;100498.23;1816268;79;21161;-80
2022/03/10 02:55:57;;;;;;;21.37;12.73;;;;;;;-6.55;82.71;100501.87;1783887;80;21767;-75
2022/03/10 02:59:03;;;;;;;23.95;14.55;;;;;;;-6.59;83.04;100498.94;1817441;79;21132;-77
2022/03/10 03:02:12;;;;;;;28.62;14.47;;;;;;;-6.64;83.73;100504.05;1816752;79;21788;-79
2022/03/10 03:05:13;;;;;;;23.70;13.38;;;;;;;-6.67;84.12;100511.71;1784492;80;21223;-80
2022/03/10 03:08:18;;;;;;;19.52;11.43;;;;;;;-6.66;84.10;100517.89;1817516;79;21165;-79
2022/03/10 03:11:24;;;;;;;20.82;10.65;;;;;;;-6.65;83.64;100503.19;1785317;80;21720;-80
2022/03/10 03:14:28;;;;;;;23.27;11.03;;;;;;;-6.65;83.36;100523.61;1817598;79;21153;-79
2022/03/10 03:17:34;;;;;;;18.42;11.57;;;;;;;-6.69;82.68;100520.20;1785314;80;21775;-75
2022/03/10 03:20:38;;;;;;;18.98;11.30;;;;;;;-6.71;82.44;100525.59;1817494;79;21156;-75
2022/03/10 03:23:44;;;;;;;17.73;10.53;;;;;;;-6.74;82.34;100532.36;1785492;80;21192;-79
2022/03/10 03:26:50;;;;;;;21.23;11.25;;;;;;;-6.78;82.15;100529.88;1817388;79;21713;-75
2022/03/10 03:29:57;;;;;;;13.53;9.50;;;;;;;-6.81;81.81;100528.70;1784134;78;22138;-79
2022/03/10 03:33:02;;;;;;;15.68;9.83;;;;;;;-6.81;82.07;100531.36;1817460;79;21187;-75
2022/03/10 03:36:02;;;;;;;15.95;9.75;;;;;;;-6.82;82.56;100537.14;1783946;80;21214;-80
2022/03/10 03:39:07;;;;;;;14.15;8.95;;;;;;;-6.81;82.28;100545.98;1783713;80;21133;-79
2022/03/10 03:42:14;;;;;;;18.92;10.72;;;;;;;-6.84;81.32;100535.45;1817321;78;21163;-76
2022/03/10 03:45:19;;;;;;;15.63;10.08;;;;;;;-6.85;81.35;100539.05;1785287;80;21201;-75
2022/03/10 03:48:25;;;;;;;18.10;10.15;;;;;;;-6.86;81.45;100545.30;1817419;79;21589;-80
2022/03/10 03:51:29;;;;;;;17.10;10.00;;;;;;;-6.87;81.96;100562.16;1785308;80;21741;-75
2022/03/10 03:54:35;;;;;;;15.40;8.93;;;;;;;-6.87;81.22;100556.38;1817473;79;21713;-76
2022/03/10 03:57:42;;;;;;;19.00;9.33;;;;;;;-6.89;80.53;100566.69;1785339;80;21199;-76
2022/03/10 04:00:47;;;;;;;19.07;10.50;;;;;;;-6.95;80.00;100562.48;1817471;79;21140;-79
2022/03/10 04:03:54;;;;;;;18.45;9.55;;;;;;;-7.02;80.17;100564.96;1817385;79;21161;-80
2022/03/10 04:07:01;;;;;;;17.77;9.48;;;;;;;-7.10;80.57;100570.59;1784801;80;21183;-80
2022/03/10 04:10:07;;;;;;;17.37;9.55;;;;;;;-7.15;80.57;100569.91;1817532;79;21143;-80
2022/03/10 04:13:12;;;;;;;16.85;8.90;;;;;;;-7.20;80.81;100574.50;1817343;79;21729;-79
2022/03/10 04:16:18;;;;;;;16.23;9.30;;;;;;;-7.22;81.20;100572.37;1785287;80;21708;-76
2022/03/10 04:19:23;;;;;;;15.93;8.18;;;;;;;-7.27;80.80;100570.36;1817634;79;21172;-79
2022/03/10 04:22:29;;;;;;;18.30;8.95;;;;;;;-7.30;80.71;100594.38;1817409;79;21773;-80
2022/03/10 04:25:36;;;;;;;17.57;9.03;;;;;;;-7.40;80.66;100577.91;1785201;80;21148;-79
2022/03/10 04:28:41;;;;;;;14.85;8.43;;;;;;;-7.51;81.18;100578.31;1783583;80;21189;-79
2022/03/10 04:31:46;;;;;;;13.22;8.18;;;;;;;-7.56;81.08;100579.41;1792053;80;21215;-77
2022/03/10 04:34:53;;;;;;;13.98;8.13;;;;;;;-7.58;80.88;100578.11;1792014;80;21199;-79
2022/03/10 04:37:58;;;;;;;12.98;7.65;;;;;;;-7.63;80.85;100584.05;1792041;80;21706;-75
2022/03/10 04:41:05;;;;;;;13.93;8.08;;;;;;;-7.62;81.20;100577.84;1786722;80;21179;-75
2022/03/10 04:44:11;;;;;;;15.00;9.30;;;;;;;-7.60;81.86;100582.63;1820466;79;21152;-79
2022/03/10 04:47:16;;;;;;;11.43;6.90;;;;;;;-7.62;82.18;100588.90;1787762;79;21721;-75
2022/03/10 04:50:18;;;;;;;15.93;8.28;;;;;;;-7.68;81.87;100584.68;1820921;79;21121;-75
2022/03/10 04:53:23;;;;;;;13.00;8.25;;;;;;;-7.75;81.15;100596.45;1788297;79;21172;-80
2022/03/10 04:56:29;;;;;;;10.78;6.97;;;;;;;-7.76;81.30;100600.05;1820604;79;21741;-79
2022/03/10 04:59:34;;;;;;;12.90;7.00;;;;;;;-7.75;80.91;100589.81;1788466;80;21223;-78
2022/03/10 05:02:39;;;;;;;14.87;8.75;;;;;;;-7.79;80.16;100604.13;1820682;79;21184;-79
2022/03/10 05:05:45;;;;;;;17.32;8.90;;;;;;;-7.86;80.55;100605.24;1788540;80;21214;-79
2022/03/10 05:08:52;;;;;;;18.90;8.50;;;;;;;-7.93;80.20;100604.59;1819092;79;21139;-75
2022/03/10 05:11:57;;;;;;;27.62;12.82;;;;;;;-7.99;80.20;100605.69;1788448;79;21207;-79
2022/03/10 05:15:06;;;;;;;16.62;8.65;;;;;;;-7.99;80.26;100623.41;1820594;79;21180;-79
2022/03/10 05:18:12;;;;;;;18.35;9.20;;;;;;;-7.97;80.28;100611.80;1787244;79;21621;-77
2022/03/10 05:21:18;;;;;;;12.07;6.85;;;;;;;-7.99;79.60;100624.27;1819128;79;21187;-80
2022/03/10 05:24:24;;;;;;;15.25;7.83;;;;;;;-8.08;78.56;100626.36;1788432;80;21139;-80
2022/03/10 05:27:29;;;;;;;17.12;10.23;;;;;;;-8.17;78.33;100642.13;1819774;79;21164;-80
2022/03/10 05:30:36;;;;;;;18.57;9.73;;;;;;;-8.19;78.73;100639.10;1786842;80;21184;-75
2022/03/10 05:33:41;;;;;;;14.35;9.43;;;;;;;-8.16;79.13;100630.59;1817516;77;21675;-75
2022/03/10 05:36:47;;;;;;;18.67;9.00;;;;;;;-8.06;79.52;100641.30;1785240;80;21187;-79
2022/03/10 05:39:51;;;;;;;12.88;7.25;;;;;;;-7.86;79.57;100634.45;1817455;78;21153;-75
2022/03/10 05:43:00;;;;;;;12.28;7.15;;;;;;;-7.72;78.62;100638.83;1785292;80;21215;-80
2022/03/10 05:46:05;;;;;;;13.78;7.25;;;;;;;-7.63;77.74;100634.53;1817533;79;21152;-75
2022/03/10 05:49:11;;;;;;;12.85;7.53;;;;;;;-7.57;77.43;100644.96;1817849;77;21721;-75
2022/03/10 05:52:16;;;;;;;20.12;11.12;;;;;;;-7.50;77.21;100638.49;1799212;78;21738;-79
2022/03/10 05:55:23;;;;;;;12.93;7.80;;;;;;;-7.41;76.96;100637.77;1814356;79;21129;-75
2022/03/10 05:58:29;;;;;;;16.12;7.55;;;;;;;-7.34;76.45;100626.87;1790177;80;21152;-79
2022/03/10 06:01:34;;;;;;;12.03;7.17;;;;;;;-7.34;75.53;100636.17;1814562;79;21200;-75
2022/03/10 06:04:38;;;;;;;14.30;8.53;;;;;;;-7.34;74.87;100637.94;1789105;80;21689;-75
2022/03/10 06:07:44;;;;;;;18.75;8.80;;;;;;;-7.30;75.34;100644.88;1816168;79;21188;-80
2022/03/10 06:10:49;;;;;;;14.93;8.65;;;;;;;-7.18;74.74;100638.27;1835307;77;21109;-79
2022/03/10 06:13:54;;;;;;;15.68;9.25;;;;;;;-7.14;73.96;100643.87;1849400;77;21145;-75
2022/03/10 06:16:47;;;;;;;21.07;8.73;;;;;;;-7.24;73.34;100652.66;1849551;77;21718;-75
2022/03/10 06:19:53;;;;;;;13.20;8.10;;;;;;;-7.29;72.93;100651.49;1780598;79;21161;-75
2022/03/10 06:23:01;;;;;;;14.47;7.33;;;;;;;-7.32;72.66;100639.63;1816251;79;21233;-80
2022/03/10 06:26:06;;;;;;;14.85;7.62;;;;;;;-7.35;73.11;100634.41;1816080;79;21175;-80
2022/03/10 06:29:13;;;;;;;17.45;8.78;;;;;;;-7.36;73.10;100661.92;1816057;79;21162;-76
2022/03/10 06:32:19;;;;;;;14.13;7.78;;;;;;;-7.36;72.89;100631.36;1814927;78;21166;-80
2022/03/10 06:35:25;;;;;;;17.77;8.03;;;;;;;-7.32;73.32;100646.73;1816148;79;21118;-81
2022/03/10 06:38:30;;;;;;;18.23;8.68;;;;;;;-7.27;72.98;100640.80;1784137;80;21140;-75
2022/03/10 06:41:36;;;;;;;19.95;8.28;;;;;;;-7.22;72.30;100637.50;1816387;79;21209;-75
2022/03/10 06:44:42;;;;;;;14.18;8.10;;;;;;;-7.21;72.41;100640.56;1784145;80;21184;-81
2022/03/10 06:47:41;;;;;;;24.00;9.28;;;;;;;-7.15;71.77;100650.99;1799369;79;21185;-79
2022/03/10 06:50:47;;;;;;;15.28;8.43;;;;;;;-7.15;71.54;100654.98;1812512;77;21151;-76
2022/03/10 06:53:54;;;;;;;17.12;8.80;;;;;;;-7.12;71.16;100644.68;1784325;79;21178;-80
2022/03/10 06:56:59;;;;;;;14.03;7.92;;;;;;;-7.11;71.26;100635.77;1784024;80;21181;-75
2022/03/10 07:00:05;;;;;;;20.62;9.55;;;;;;;-7.01;71.51;100643.80;1783829;80;21201;-81
2022/03/10 07:03:10;;;;;;;14.63;8.48;;;;;;;-6.89;71.39;100644.69;1783502;80;21298;-75
2022/03/10 07:06:15;;;;;;;18.07;8.20;;;;;;;-6.85;70.21;100645.45;1783881;80;21164;-81
2022/03/10 07:09:22;;;;;;;22.25;9.03;;;;;;;-6.78;70.85;100640.28;1813307;79;21780;-81
2022/03/10 07:12:28;;;;;;;16.32;9.13;;;;;;;-6.71;70.90;100629.36;1814889;79;21919;-76
2022/03/10 07:15:33;;;;;;;17.00;8.63;;;;;;;-6.67;70.71;100632.77;1781183;80;21196;-75
2022/03/10 07:18:40;;;;;;;15.65;9.50;;;;;;;-6.62;70.55;100641.44;1815146;79;21165;-81
2022/03/10 07:21:45;;;;;;;14.07;7.37;;;;;;;-6.55;69.89;100650.90;1782322;80;21216;-75
2022/03/10 07:24:50;;;;;;;14.28;8.45;;;;;;;-6.41;69.38;100641.52;1816159;79;21145;-75
2022/03/10 07:27:56;;;;;;;15.35;8.85;;;;;;;-6.32;69.62;100644.67;1782842;80;21208;-76
2022/03/10 07:31:02;;;;;;;18.32;8.63;;;;;;;-6.17;69.33;100645.84;1816843;79;21145;-76
2022/03/10 07:34:07;;;;;;;18.62;7.78;;;;;;;-5.90;69.95;100641.16;1759664;78;21792;-77
2022/03/10 07:37:13;;;;;;;13.88;8.20;;;;;;;-5.72;68.83;100643.52;1772438;81;21766;-81
2022/03/10 07:40:20;;;;;;;17.27;8.95;;;;;;;-5.67;68.06;100651.70;1755959;82;21203;-81
2022/03/10 07:43:27;;;;;;;18.25;8.53;;;;;;;-5.66;67.00;100650.77;1772484;81;21169;-77
2022/03/10 07:46:33;;;;;;;13.53;8.20;;;;;;;-5.63;66.93;100638.27;1755310;80;21705;-76
2022/03/10 07:49:39;;;;;;;24.43;10.10;;;;;;;-5.51;67.65;100629.72;1772455;81;21197;-81
2022/03/10 07:52:44;;;;;;;16.50;8.75;;;;;;;-5.46;67.08;100645.94;1755724;82;21192;-76
2022/03/10 07:55:54;;;;;;;13.35;8.30;;;;;;;-5.30;66.80;100633.25;1755726;82;21150;-76
2022/03/10 07:58:58;;;;;;;22.30;8.93;;;;;;;-5.11;66.72;100628.83;1755560;82;21199;-81
2022/03/10 08:02:04;;;;;;;20.32;9.50;;;;;;;-5.02;65.52;100644.89;1765362;80;21699;-82
2022/03/10 08:05:12;;;;;;;15.58;8.70;;;;;;;-5.14;65.18;100640.48;1772863;79;21180;-82
2022/03/10 08:08:19;;;;;;;19.12;9.03;;;;;;;-5.23;65.28;100634.70;1784536;79;21191;-76
2022/03/10 08:11:25;;;;;;;16.48;9.03;;;;;;;-5.34;65.79;100647.19;1820489;79;21215;-76
2022/03/10 08:14:31;;;;;;;16.05;9.45;;;;;;;-5.40;66.20;100634.99;1803717;79;21183;-82
2022/03/10 08:17:37;;;;;;;15.95;9.08;;;;;;;-5.37;67.06;100645.11;1779670;80;21191;-82
2022/03/10 08:20:44;;;;;;;17.37;9.38;;;;;;;-5.46;66.41;100641.94;1801145;79;21725;-77
2022/03/10 08:23:51;;;;;;;21.90;8.80;;;;;;;-5.55;66.54;100649.00;1799410;79;21153;-82
2022/03/10 08:26:58;;;;;;;13.35;8.08;;;;;;;-5.74;67.04;100636.92;1789732;79;21164;-76
2022/03/10 08:30:03;;;;;;;30.92;17.67;;;;;;;-5.76;67.38;100637.91;1791726;79;21159;-80
2022/03/10 08:33:09;;;;;;;20.37;9.20;;;;;;;-5.71;68.29;100651.44;1788686;79;21146;-76
2022/03/10 08:36:14;;;;;;;16.57;9.15;;;;;;;-5.66;67.27;100639.25;1792123;79;21164;-83
2022/03/10 08:39:20;;;;;;;15.88;8.80;;;;;;;-5.66;68.16;100648.57;1779304;79;21728;-81
2022/03/10 08:42:25;;;;;;;21.27;12.33;;;;;;;-5.64;68.09;100639.20;1780751;79;21718;-82
2022/03/10 08:45:30;;;;;;;19.35;9.30;;;;;;;-5.60;68.16;100634.11;1779991;79;21167;-77
2022/03/10 08:48:36;;;;;;;17.15;9.03;;;;;;;-5.53;68.78;100653.78;1805715;79;21159;-83
2022/03/10 08:51:42;;;;;;;11.95;8.43;;;;;;;-5.57;68.14;100644.18;1802731;77;21180;-79
2022/03/10 08:54:48;;;;;;;15.08;9.00;;;;;;;-5.54;68.28;100656.52;1811445;79;21142;-76
2022/03/10 08:57:53;;;;;;;19.32;8.55;;;;;;;-5.59;67.69;100642.53;1801719;79;21734;-75
2022/03/10 09:00:59;;;;;;;18.02;9.63;;;;;;;-5.68;68.11;100641.13;1807115;79;21176;-77
2022/03/10 09:04:06;;;;;;;16.25;8.13;;;;;;;-5.64;68.63;100637.40;1801073;79;21165;-75
2022/03/10 09:07:05;;;;;;;22.37;9.18;;;;;;;-5.53;68.46;100633.79;1780049;79;21168;-83
2022/03/10 09:09:58;;;;;;;17.50;9.78;;;;;;;-5.46;68.37;100643.27;1775640;80;21180;-77
2022/03/10 09:12:44;;;;;;;15.18;9.38;;;;;;;-5.40;68.38;100635.47;1767029;80;21149;-75
2022/03/10 09:15:37;;;;;;;17.75;9.63;;;;;;;-5.31;68.67;100638.20;1771521;80;21232;-75
2022/03/10 09:18:45;;;;;;;14.95;8.63;;;;;;;-5.19;67.57;100638.50;1773043;80;21697;-76
2022/03/10 09:21:51;;;;;;;17.15;9.15;;;;;;;-5.11;66.80;100645.30;1769752;80;21168;-82
2022/03/10 09:25:02;;;;;;;21.02;12.10;;;;;;;-5.09;66.94;100648.28;1775224;80;21142;-75
2022/03/10 09:28:10;;;;;;;18.50;11.10;;;;;;;-5.08;67.28;100638.03;1771589;80;21153;-82
2022/03/10 09:31:16;;;;;;;15.05;8.40;;;;;;;-4.95;67.99;100640.52;1776162;80;21144;-76
2022/03/10 09:34:22;;;;;;;20.72;9.80;;;;;;;-4.95;66.34;100635.18;1802537;77;21165;-75
2022/03/10 09:37:27;;;;;;;21.27;11.55;;;;;;;-5.00;66.61;100639.86;1809165;78;21215;-76
2022/03/10 09:40:26;;;;;;;26.65;10.90;;;;;;;-5.04;65.68;100635.59;1806710;78;21748;-79
2022/03/10 09:43:36;;;;;;;14.60;8.55;;;;;;;-4.98;66.05;100637.15;1808085;78;21141;-76
2022/03/10 09:46:42;;;;;;;15.03;6.92;;;;;;;-4.98;66.33;100648.69;1801920;78;21835;-82
2022/03/10 09:49:47;;;;;;;19.40;8.98;;;;;;;-5.15;65.97;100637.90;1801233;78;21513;-75
2022/03/10 09:52:53;;;;;;;14.28;8.85;;;;;;;-5.33;67.03;100627.58;1801026;78;21701;-75
2022/03/10 09:55:59;;;;;;;19.30;10.00;;;;;;;-5.38;67.14;100631.39;1806490;78;21727;-82
2022/03/10 09:59:06;;;;;;;23.07;10.85;;;;;;;-5.31;67.87;100639.06;1786817;78;21192;-80
2022/03/10 10:02:13;;;;;;;16.93;9.98;;;;;;;-5.20;69.05;100645.23;1805784;78;21180;-82
2022/03/10 10:05:38;;;;;;;39.05;21.25;;;;;;;-4.96;69.18;100648.60;1795920;80;21208;-82
2022/03/10 10:08:44;;;;;;;25.90;12.25;;;;;;;-4.73;68.75;100628.87;1803076;78;21170;-76
2022/03/10 10:11:50;;;;;;;15.53;8.63;;;;;;;-4.62;66.23;100637.23;1800912;78;21202;-81
2022/03/10 10:14:55;;;;;;;22.45;10.32;;;;;;;-4.76;66.28;100627.19;1798254;78;21150;-75
2022/03/10 10:18:03;;;;;;;16.97;8.78;;;;;;;-4.71;67.04;100626.98;1796338;80;21152;-81
2022/03/10 10:21:10;;;;;;;18.62;9.48;;;;;;;-4.52;67.42;100629.17;1808916;78;21160;-75
2022/03/10 10:24:22;;;;;;;25.75;10.65;;;;;;;-4.26;67.03;100623.06;1796670;80;21676;-76
2022/03/10 10:27:32;;;;;;;20.27;10.18;;;;;;;-4.07;65.66;100620.35;1803193;78;21213;-82
2022/03/10 10:30:38;;;;;;;14.38;9.13;;;;;;;-4.05;65.34;100617.98;1796598;78;21149;-75
2022/03/10 10:33:47;;;;;;;19.37;9.13;;;;;;;-3.96;65.32;100608.65;1785507;80;21585;-76
2022/03/10 10:36:52;;;;;;;18.62;10.43;;;;;;;-3.94;65.21;100616.14;1812096;79;21546;-82
2022/03/10 10:40:00;;;;;;;22.10;10.65;;;;;;;-3.87;65.65;100604.18;1747672;79;21148;-81
2022/03/10 10:43:00;;;;;;;18.40;9.15;;;;;;;-3.81;64.02;100606.56;1793883;78;21757;-82
2022/03/10 10:46:04;;;;;;;15.43;8.48;;;;;;;-3.83;64.26;100606.23;1803368;79;21141;-82
2022/03/10 10:49:18;;;;;;;21.10;11.18;;;;;;;-3.88;64.36;100605.98;1793166;79;21785;-76
2022/03/10 10:52:21;;;;;;;19.25;9.85;;;;;;;-3.82;64.02;100597.27;1787773;80;21204;-82
2022/03/10 10:55:26;;;;;;;20.15;9.78;;;;;;;-3.69;64.59;100594.36;1788672;80;21141;-76
2022/03/10 10:58:32;;;;;;;19.90;9.98;;;;;;;-3.62;63.84;100599.33;1788305;80;21802;-76
2022/03/10 11:01:37;;;;;;;20.80;9.95;;;;;;;-3.52;63.99;100594.36;1788114;80;21202;-76
2022/03/10 11:04:46;;;;;;;20.43;10.15;;;;;;;-3.53;62.77;100597.95;1787951;80;21197;-76
2022/03/10 11:07:55;;;;;;;20.13;8.57;;;;;;;-3.50;63.44;100613.86;1788592;80;21546;-76
2022/03/10 11:11:00;;;;;;;20.80;8.80;;;;;;;-3.58;62.15;100602.68;1816062;79;21705;-76
2022/03/10 11:14:06;;;;;;;25.10;10.15;;;;;;;-3.64;62.46;100604.34;1815717;79;21579;-81
2022/03/10 11:17:15;;;;;;;13.10;7.95;;;;;;;-3.65;61.88;100603.48;1772026;79;21755;-76
2022/03/10 11:20:22;;;;;;;18.50;8.40;;;;;;;-3.73;61.85;100594.98;1784349;80;21231;-81
2022/03/10 11:23:55;;;;;;;16.90;9.13;;;;;;;-3.73;62.56;100598.13;1782853;80;21161;-81
2022/03/10 11:27:21;;;;;;;22.00;9.45;;;;;;;-3.69;63.09;100596.56;1768837;80;21738;-82
2022/03/10 11:30:33;;;;;;;19.92;10.70;;;;;;;-3.64;63.23;100597.66;1817547;79;21200;-81
2022/03/10 11:33:40;;;;;;;16.15;9.80;;;;;;;-3.65;63.09;100598.61;1785383;80;21184;-82
2022/03/10 11:36:45;;;;;;;14.63;8.60;;;;;;;-3.71;62.53;100606.95;1815441;79;21212;-77
2022/03/10 11:40:02;;;;;;;18.98;8.88;;;;;;;-3.81;63.55;100586.95;1790060;80;21710;-77
2022/03/10 11:43:08;;;;;;;20.50;9.90;;;;;;;-3.76;63.16;100593.83;1755954;79;21165;-82
2022/03/10 11:46:31;;;;;;;22.52;12.15;;;;;;;-3.73;64.61;100592.78;1790075;80;21726;-82
2022/03/10 11:49:46;;;;;;;16.60;9.45;;;;;;;-3.77;64.13;100594.74;1790086;80;21177;-82
2022/03/10 11:52:55;;;;;;;19.60;10.95;;;;;;;-3.71;65.06;100598.94;1790007;80;21742;-82
2022/03/10 11:56:02;;;;;;;19.43;9.20;;;;;;;-3.71;63.68;100597.59;1758468;80;21149;-81
2022/03/10 11:59:33;;;;;;;17.67;9.73;;;;;;;-3.66;64.84;100601.76;1789916;80;21195;-82
2022/03/10 12:02:49;;;;;;;15.95;9.68;;;;;;;-3.59;65.08;100603.63;1788992;80;21228;-76
2022/03/10 12:06:04;;;;;;;29.27;12.37;;;;;;;-3.62;64.01;100594.45;1789955;80;21165;-82
2022/03/10 12:09:11;;;;;;;33.88;16.15;;;;;;;-3.71;64.30;100593.59;1790034;80;21698;-76
2022/03/10 12:12:28;;;;;;;21.42;11.60;;;;;;;-3.70;65.37;100592.16;1788471;80;21180;-76
2022/03/10 12:15:47;;;;;;;17.27;9.58;;;;;;;-3.70;64.07;100600.66;1788521;79;21149;-76
2022/03/10 12:18:55;;;;;;;21.33;11.55;;;;;;;-3.73;64.40;100590.97;1790148;80;21709;-82
2022/03/10 12:22:04;;;;;;;20.25;10.75;;;;;;;-3.69;65.26;100590.35;1789844;80;21180;-82
2022/03/10 12:25:30;;;;;;;19.35;10.35;;;;;;;-3.72;65.76;100586.02;1777190;80;21133;-76
2022/03/10 12:28:42;;;;;;;21.80;13.32;;;;;;;-3.70;65.40;100588.16;1790061;80;21149;-77
2022/03/10 12:31:48;;;;;;;18.60;10.20;;;;;;;-3.74;65.09;100601.75;1790052;80;21156;-76
2022/03/10 12:34:57;;;;;;;20.82;12.45;;;;;;;-3.94;65.69;100608.12;1790090;80;21144;-77
2022/03/10 12:38:02;;;;;;;19.35;11.30;;;;;;;-4.00;67.21;100607.96;1791185;79;21180;-81
2022/03/10 12:41:08;;;;;;;18.85;10.43;;;;;;;-4.05;66.88;100609.97;1790004;80;21138;-82
2022/03/10 12:44:15;;;;;;;17.60;10.72;;;;;;;-4.13;66.60;100625.54;1790020;80;21134;-76
2022/03/10 12:47:21;;;;;;;16.90;9.15;;;;;;;-4.22;67.08;100600.13;1790163;80;21169;-82
2022/03/10 12:50:26;;;;;;;15.78;9.35;;;;;;;-4.23;67.66;100606.42;1789964;80;21192;-76
2022/03/10 12:53:34;;;;;;;15.20;8.98;;;;;;;-4.25;66.59;100610.96;1789966;80;21738;-76
2022/03/10 12:57:00;;;;;;;17.42;9.08;;;;;;;-4.24;67.82;100613.16;1776932;80;21172;-76
2022/03/10 13:00:06;;;;;;;15.70;8.88;;;;;;;-4.29;68.16;100613.37;1790280;80;21129;-82
2022/03/10 13:03:12;;;;;;;19.77;10.35;;;;;;;-4.36;67.81;100621.31;1790086;80;21176;-81
2022/03/10 13:06:18;;;;;;;19.17;9.63;;;;;;;-4.38;67.42;100611.16;1789817;80;21243;-81
2022/03/10 13:09:31;;;;;;;14.85;8.78;;;;;;;-4.43;66.31;100607.84;1789986;80;21152;-75
2022/03/10 13:12:43;;;;;;;12.45;7.87;;;;;;;-4.47;66.33;100619.17;1789910;80;21185;-76
2022/03/10 13:15:49;;;;;;;16.17;9.40;;;;;;;-4.47;66.24;100608.92;1789383;80;21706;-77
2022/03/10 13:18:55;;;;;;;14.75;8.35;;;;;;;-4.49;67.30;100617.02;1788638;79;21160;-82
2022/03/10 13:22:04;;;;;;;20.43;8.55;;;;;;;-4.52;67.56;100609.62;1790041;80;21192;-82
2022/03/10 13:25:10;;;;;;;19.67;10.15;;;;;;;-4.55;67.91;100608.45;1789882;80;21169;-76
2022/03/10 13:28:21;;;;;;;18.42;9.43;;;;;;;-4.60;68.51;100622.02;1789738;80;21208;-82
2022/03/10 13:31:35;;;;;;;17.10;9.33;;;;;;;-4.60;66.82;100630.03;1790085;80;21299;-82
2022/03/10 13:34:35;;;;;;;16.73;10.40;;;;;;;-4.65;66.81;100624.05;1790005;80;21745;-76
2022/03/10 13:37:40;;;;;;;16.93;9.90;;;;;;;-4.69;66.37;100613.97;1789808;80;21172;-82
2022/03/10 13:40:48;;;;;;;22.42;10.43;;;;;;;-4.72;66.16;100628.78;1813160;79;21745;-76
2022/03/10 13:43:53;;;;;;;20.00;11.18;;;;;;;-4.75;67.01;100625.38;1781113;80;21705;-77
2022/03/10 13:47:18;;;;;;;21.30;11.08;;;;;;;-4.66;66.88;100623.62;1772527;81;21200;-77
2022/03/10 13:50:30;;;;;;;23.18;9.55;;;;;;;-4.66;66.85;100615.17;1777158;80;21164;-82
2022/03/10 13:53:36;;;;;;;21.48;9.88;;;;;;;-4.64;67.22;100627.97;1774846;80;21227;-82
2022/03/10 13:56:53;;;;;;;19.93;9.97;;;;;;;-4.69;68.13;100646.47;1794828;80;21218;-82
2022/03/10 13:59:58;;;;;;;26.77;12.37;;;;;;;-4.75;69.06;100632.05;1796493;80;21737;-76
2022/03/10 14:03:08;;;;;;;27.75;12.98;;;;;;;-4.76;69.78;100626.33;1795291;80;21784;-82
2022/03/10 14:06:14;;;;;;;24.32;12.75;;;;;;;-4.78;68.93;100633.09;1797175;80;21177;-84
2022/03/10 14:09:32;;;;;;;19.00;9.88;;;;;;;-4.80;68.57;100628.73;1797624;80;21764;-79
2022/03/10 14:12:39;;;;;;;20.08;11.12;;;;;;;-4.84;69.09;100613.83;1796419;80;21215;-82
2022/03/10 14:15:50;;;;;;;24.47;11.18;;;;;;;-4.86;69.49;100623.22;1777953;80;21216;-75
2022/03/10 14:18:57;;;;;;;26.30;11.22;;;;;;;-4.90;71.56;100638.97;1791368;79;21157;-81
2022/03/10 14:22:04;;;;;;;20.35;10.25;;;;;;;-4.95;71.60;100639.19;1793020;80;21191;-82